Time;durP1;ratioP1;P1;durP2;ratioP2;P2;SDS_P1;SDS_P2;PMS_P1;PMS_P2;Temp;Humidity;BMP_temperature;BMP_pressure;BME280_temperature;BME280_humidity;BME280_pressure;Samples;Min_cycle;Max_cycle;Signal;HPM_P1;HPM_P2
2022/01/27 00:01:40;;;;;;;;;;;4.30;99.90;;;;;;5071239;28;20303;-57
2022/01/27 00:04:13;;;;;;;;;;;4.20;99.90;;;;;;5068078;28;19959;-57
2022/01/27 00:06:40;;;;;;;;;;;4.30;99.90;;;;;;5068542;28;19920;-54
2022/01/27 00:10:10;;;;;;;;;;;4.30;99.90;;;;;;5068238;28;19969;-58
2022/01/27 00:11:52;;;;;;;;;;;4.30;99.90;;;;;;5044927;28;19951;-57
2022/01/27 00:14:20;;;;;;;;;;;4.30;99.90;;;;;;5070351;28;19956;-57
2022/01/27 00:16:55;;;;;;;;;;;4.30;99.90;;;;;;5070479;28;19921;-55
2022/01/27 00:19:24;;;;;;;;;;;4.30;99.90;;;;;;5067712;28;20277;-56
2022/01/27 00:21:49;;;;;;;;;;;4.30;99.90;;;;;;5068539;28;20403;-57
2022/01/27 00:24:15;;;;;;;;;;;4.30;99.90;;;;;;5067724;28;19909;-55
2022/01/27 00:26:41;;;;;;;;;;;4.30;99.90;;;;;;5069213;28;19912;-57
2022/01/27 00:29:07;;;;;;;;;;;4.30;99.90;;;;;;5071295;28;19916;-56
2022/01/27 00:31:32;;;;;;;;;;;4.30;99.90;;;;;;5068197;28;19908;-57
2022/01/27 00:34:03;;;;;;;;;;;4.30;99.90;;;;;;5068889;28;20046;-56
2022/01/27 00:36:29;;;;;;;;;;;4.30;99.90;;;;;;5068095;28;19920;-57
2022/01/27 00:38:54;;;;;;;;;;;4.30;99.90;;;;;;5068599;28;19924;-51
2022/01/27 00:41:21;;;;;;;;;;;4.30;99.90;;;;;;5051954;28;19909;-53
2022/01/27 00:43:48;;;;;;;;;;;4.30;99.90;;;;;;5069568;28;20398;-55
2022/01/27 00:46:16;;;;;;;;;;;4.30;99.90;;;;;;5068920;28;20003;-57
2022/01/27 00:48:42;;;;;;;;;;;4.30;99.90;;;;;;5069272;28;20396;-57
2022/01/27 00:51:10;;;;;;;;;;;4.30;99.90;;;;;;5067656;28;20292;-53
2022/01/27 00:56:15;;;;;;;;;;;4.30;99.90;;;;;;5070509;28;19978;-57
2022/01/27 00:58:53;;;;;;;;;;;4.30;99.90;;;;;;5068599;28;19920;-57
2022/01/27 01:01:24;;;;;;;;;;;4.30;99.90;;;;;;5067559;28;19927;-57
2022/01/27 01:03:51;;;;;;;;;;;4.30;99.90;;;;;;5068236;28;19922;-57
2022/01/27 01:06:37;;;;;;;;;;;4.30;99.90;;;;;;5067428;28;20334;-55
2022/01/27 01:22:08;;;;;;;;;;;4.30;99.90;;;;;;5070898;28;19992;-57
2022/01/27 01:30:21;;;;;;;;;;;4.30;99.90;;;;;;5071658;28;20336;-59
2022/01/27 01:32:52;;;;;;;;;;;4.30;99.90;;;;;;5056842;28;19912;-57
2022/01/27 01:35:26;;;;;;;;;;;4.30;99.90;;;;;;5073336;28;19951;-56
2022/01/27 01:37:53;;;;;;;;;;;4.30;99.90;;;;;;5073343;28;20404;-58
2022/01/27 01:40:18;;;;;;;;;;;4.30;99.90;;;;;;5071138;28;19923;-57
2022/01/27 01:42:47;;;;;;;;;;;4.30;99.90;;;;;;5071403;28;20300;-57
2022/01/27 01:45:13;;;;;;;;;;;4.30;99.90;;;;;;5071389;28;19995;-57
2022/01/27 01:47:39;;;;;;;;;;;4.30;99.90;;;;;;5057855;28;19916;-55
2022/01/27 01:50:05;;;;;;;;;;;4.30;99.90;;;;;;5074413;28;20368;-57
2022/01/27 01:52:31;;;;;;;;;;;4.30;99.90;;;;;;5055906;28;19966;-57
2022/01/27 01:54:57;;;;;;;;;;;4.30;99.90;;;;;;5070985;28;20457;-57
2022/01/27 01:57:22;;;;;;;;;;;4.30;99.90;;;;;;5073741;28;19912;-56
2022/01/27 01:59:48;;;;;;;;;;;4.20;99.90;;;;;;5070759;28;19916;-57
2022/01/27 02:02:14;;;;;;;;;;;4.20;99.90;;;;;;5059110;28;19948;-57
2022/01/27 02:04:40;;;;;;;;;;;4.30;99.90;;;;;;5070774;28;20457;-57
2022/01/27 02:07:14;;;;;;;;;;;4.20;99.90;;;;;;5070778;28;19919;-53
2022/01/27 02:10:05;;;;;;;;;;;4.20;99.90;;;;;;5072876;28;20354;-54
2022/01/27 02:18:01;;;;;;;;;;;4.20;99.90;;;;;;5072321;28;19977;-57
2022/01/27 02:20:30;;;;;;;;;;;4.20;99.90;;;;;;5072069;28;19912;-54
2022/01/27 02:22:56;;;;;;;;;;;4.20;99.90;;;;;;5073292;28;19908;-55
2022/01/27 02:25:22;;;;;;;;;;;4.20;99.90;;;;;;5070110;28;19918;-54
2022/01/27 02:27:51;;;;;;;;;;;4.20;99.90;;;;;;5069354;28;19913;-57
2022/01/27 02:30:16;;;;;;;;;;;4.20;99.90;;;;;;5069759;28;19919;-58
2022/01/27 02:32:42;;;;;;;;;;;4.20;99.90;;;;;;5069955;28;19912;-56
2022/01/27 02:35:08;;;;;;;;;;;4.20;99.90;;;;;;5073124;28;19916;-53
2022/01/27 02:37:33;;;;;;;;;;;4.20;99.90;;;;;;5069891;28;19912;-58
2022/01/27 02:39:59;;;;;;;;;;;4.20;99.90;;;;;;5052695;28;19913;-56
2022/01/27 02:42:32;;;;;;;;;;;4.20;99.90;;;;;;5069894;28;19955;-58
2022/01/27 02:45:07;;;;;;;;;;;4.20;99.90;;;;;;5071039;28;19961;-57
2022/01/27 02:47:33;;;;;;;;;;;4.20;99.90;;;;;;5071147;28;20003;-58
2022/01/27 02:49:58;;;;;;;;;;;4.20;99.90;;;;;;5072470;28;19952;-57
2022/01/27 02:52:24;;;;;;;;;;;4.20;99.90;;;;;;5070383;28;19952;-55
2022/01/27 02:54:49;;;;;;;;;;;4.20;99.90;;;;;;5070932;28;19913;-57
2022/01/27 02:57:15;;;;;;;;;;;4.20;99.90;;;;;;5068929;28;19924;-56
2022/01/27 02:59:41;;;;;;;;;;;4.20;99.90;;;;;;5070699;28;19913;-57
2022/01/27 03:02:06;;;;;;;;;;;4.20;99.90;;;;;;5073608;28;19909;-57
2022/01/27 03:04:34;;;;;;;;;;;4.20;99.90;;;;;;5069787;28;19940;-57
2022/01/27 03:07:01;;;;;;;;;;;4.20;99.90;;;;;;5070717;28;19916;-56
2022/01/27 03:09:27;;;;;;;;;;;4.20;99.90;;;;;;5070876;28;19919;-56
2022/01/27 03:11:58;;;;;;;;;;;4.20;99.90;;;;;;5069898;28;20296;-56
2022/01/27 03:14:24;;;;;;;;;;;4.20;99.90;;;;;;5054503;28;20388;-58
2022/01/27 03:16:54;;;;;;;;;;;4.20;99.90;;;;;;5072736;28;20011;-57
2022/01/27 03:19:21;;;;;;;;;;;4.20;99.90;;;;;;5069367;28;19963;-57
2022/01/27 03:21:46;;;;;;;;;;;4.20;99.90;;;;;;5051076;28;19939;-56
2022/01/27 03:24:12;;;;;;;;;;;4.20;99.90;;;;;;5069492;28;20321;-55
2022/01/27 03:26:38;;;;;;;;;;;4.20;99.90;;;;;;5069848;28;20448;-52
2022/01/27 03:29:04;;;;;;;;;;;4.10;99.90;;;;;;5072205;28;20365;-57
2022/01/27 03:31:29;;;;;;;;;;;4.20;99.90;;;;;;5069097;28;19951;-57
2022/01/27 03:33:55;;;;;;;;;;;4.20;99.90;;;;;;5053955;28;20381;-57
2022/01/27 03:36:21;;;;;;;;;;;4.20;99.90;;;;;;5069743;28;19927;-55
2022/01/27 03:38:47;;;;;;;;;;;4.10;99.90;;;;;;5070164;28;19913;-55
2022/01/27 03:41:18;;;;;;;;;;;4.10;99.90;;;;;;5072649;28;19974;-56
2022/01/27 03:43:44;;;;;;;;;;;4.10;99.90;;;;;;5070027;28;19919;-56
2022/01/27 03:46:09;;;;;;;;;;;4.10;99.90;;;;;;5069492;28;20014;-58
2022/01/27 03:48:35;;;;;;;;;;;4.10;99.90;;;;;;5068860;28;19935;-55
2022/01/27 03:51:01;;;;;;;;;;;4.10;99.90;;;;;;5069182;28;19913;-55
2022/01/27 03:53:26;;;;;;;;;;;4.20;99.90;;;;;;5070739;28;19991;-57
2022/01/27 03:55:52;;;;;;;;;;;4.20;99.90;;;;;;5069605;28;19920;-57
2022/01/27 03:58:17;;;;;;;;;;;4.20;99.90;;;;;;5068304;28;20300;-58
2022/01/27 04:00:43;;;;;;;;;;;4.20;99.90;;;;;;5069203;28;20373;-57
2022/01/27 04:03:11;;;;;;;;;;;4.20;99.90;;;;;;5068512;28;20274;-57
2022/01/27 04:05:45;;;;;;;;;;;4.20;99.90;;;;;;5070090;28;19927;-58
2022/01/27 04:08:11;;;;;;;;;;;4.20;99.90;;;;;;5068162;28;19908;-57
2022/01/27 04:10:37;;;;;;;;;;;4.20;99.90;;;;;;5068401;28;19912;-56
2022/01/27 04:13:03;;;;;;;;;;;4.20;99.90;;;;;;5068079;28;20277;-56
2022/01/27 04:15:30;;;;;;;;;;;4.20;99.90;;;;;;5067832;28;20309;-55
2022/01/27 04:17:56;;;;;;;;;;;4.20;99.90;;;;;;5068066;28;19966;-55
2022/01/27 04:20:21;;;;;;;;;;;4.20;99.90;;;;;;5070581;28;20007;-56
2022/01/27 04:22:47;;;;;;;;;;;4.20;99.90;;;;;;5069765;28;19908;-57
2022/01/27 04:25:13;;;;;;;;;;;4.20;99.90;;;;;;5050537;28;19912;-54
2022/01/27 04:27:43;;;;;;;;;;;4.20;99.90;;;;;;5067728;28;19917;-57
2022/01/27 04:30:16;;;;;;;;;;;4.20;99.90;;;;;;5067821;28;19912;-56
2022/01/27 04:32:47;;;;;;;;;;;4.20;99.90;;;;;;5052707;28;19919;-57
2022/01/27 04:35:17;;;;;;;;;;;4.20;99.90;;;;;;5067759;28;19919;-57
2022/01/27 04:37:54;;;;;;;;;;;4.20;99.90;;;;;;5068579;28;19970;-57
2022/01/27 04:40:25;;;;;;;;;;;4.20;99.90;;;;;;5067505;28;20007;-54
2022/01/27 04:43:09;;;;;;;;;;;4.20;99.90;;;;;;5067485;28;20288;-57
2022/01/27 04:45:45;;;;;;;;;;;4.20;99.90;;;;;;5067641;28;19912;-57
2022/01/27 04:48:14;;;;;;;;;;;4.20;99.90;;;;;;5068190;28;19935;-58
2022/01/27 04:50:40;;;;;;;;;;;4.20;99.90;;;;;;5067350;28;20304;-54
2022/01/27 04:53:10;;;;;;;;;;;4.20;99.90;;;;;;5070778;28;20309;-58
2022/01/27 04:55:35;;;;;;;;;;;4.20;99.90;;;;;;5067725;28;19942;-58
2022/01/27 04:58:20;;;;;;;;;;;4.20;99.90;;;;;;5067538;28;20280;-57
2022/01/27 05:00:46;;;;;;;;;;;4.20;99.90;;;;;;5068468;28;20331;-58
2022/01/27 05:03:31;;;;;;;;;;;4.20;99.90;;;;;;5067820;28;19986;-57
2022/01/27 05:05:57;;;;;;;;;;;4.20;99.90;;;;;;5053906;28;19917;-57
2022/01/27 05:08:23;;;;;;;;;;;4.20;99.90;;;;;;5052927;28;19915;-58
2022/01/27 05:11:16;;;;;;;;;;;4.20;99.90;;;;;;5045683;28;19916;-56
2022/01/27 05:13:48;;;;;;;;;;;4.20;99.90;;;;;;5065849;28;20065;-57
2022/01/27 05:16:14;;;;;;;;;;;4.20;99.90;;;;;;5066613;28;19924;-57
2022/01/27 05:18:39;;;;;;;;;;;4.20;99.90;;;;;;5050258;28;19917;-56
2022/01/27 05:21:05;;;;;;;;;;;4.20;99.90;;;;;;5067566;28;19920;-57
2022/01/27 05:23:30;;;;;;;;;;;4.20;99.90;;;;;;5069285;28;19908;-57
2022/01/27 05:25:56;;;;;;;;;;;4.20;99.90;;;;;;5047841;28;19916;-58
2022/01/27 05:28:22;;;;;;;;;;;4.20;99.90;;;;;;5065142;28;20637;-58
2022/01/27 05:30:48;;;;;;;;;;;4.20;99.90;;;;;;5068996;28;19913;-57
2022/01/27 05:33:13;;;;;;;;;;;4.20;99.90;;;;;;5067452;28;19923;-56
2022/01/27 05:35:39;;;;;;;;;;;4.20;99.90;;;;;;5068348;28;19971;-56
2022/01/27 05:38:04;;;;;;;;;;;4.20;99.90;;;;;;5070720;28;19987;-56
2022/01/27 05:40:30;;;;;;;;;;;4.20;99.90;;;;;;5067343;28;20391;-57
2022/01/27 05:42:55;;;;;;;;;;;4.20;99.90;;;;;;5066958;28;19912;-56
2022/01/27 05:45:21;;;;;;;;;;;4.20;99.90;;;;;;5069790;28;19966;-56
2022/01/27 05:47:47;;;;;;;;;;;4.20;99.90;;;;;;5067539;28;20397;-57
2022/01/27 05:50:13;;;;;;;;;;;4.20;99.90;;;;;;5070848;28;20353;-57
2022/01/27 05:52:38;;;;;;;;;;;4.20;99.90;;;;;;5067424;28;19958;-57
2022/01/27 05:55:04;;;;;;;;;;;4.20;99.90;;;;;;5068540;28;19979;-57
2022/01/27 05:57:29;;;;;;;;;;;4.20;99.90;;;;;;5069553;28;19920;-56
2022/01/27 05:59:55;;;;;;;;;;;4.20;99.90;;;;;;5067273;28;19912;-51
2022/01/27 06:02:20;;;;;;;;;;;4.20;99.90;;;;;;5069817;28;19912;-55
2022/01/27 06:04:46;;;;;;;;;;;4.20;99.90;;;;;;5054748;28;19908;-56
2022/01/27 06:07:12;;;;;;;;;;;4.20;99.90;;;;;;5071080;28;19913;-57
2022/01/27 06:09:37;;;;;;;;;;;4.20;99.90;;;;;;5072636;28;19921;-57
2022/01/27 06:12:03;;;;;;;;;;;4.20;99.90;;;;;;5070021;28;19913;-58
2022/01/27 06:14:29;;;;;;;;;;;4.20;99.90;;;;;;5072882;28;20369;-53
2022/01/27 06:16:55;;;;;;;;;;;4.20;99.90;;;;;;5072201;28;19920;-56
2022/01/27 06:19:25;;;;;;;;;;;4.20;99.90;;;;;;5072267;28;20004;-54
2022/01/27 06:21:51;;;;;;;;;;;4.20;99.90;;;;;;5070182;28;19912;-57
2022/01/27 06:24:17;;;;;;;;;;;4.20;99.90;;;;;;5070303;28;19957;-56
2022/01/27 06:26:42;;;;;;;;;;;4.30;99.90;;;;;;5070611;28;19971;-56
2022/01/27 06:29:08;;;;;;;;;;;4.20;99.90;;;;;;5073928;28;19962;-53
2022/01/27 06:31:33;;;;;;;;;;;4.10;99.90;;;;;;5070044;28;19936;-56
2022/01/27 06:33:59;;;;;;;;;;;4.20;99.90;;;;;;5070006;28;19983;-53
2022/01/27 06:36:25;;;;;;;;;;;4.20;99.90;;;;;;5070273;28;19987;-56
2022/01/27 06:38:50;;;;;;;;;;;4.20;99.90;;;;;;5070186;28;19920;-55
2022/01/27 06:41:16;;;;;;;;;;;4.20;99.90;;;;;;5072552;28;19920;-54
2022/01/27 06:43:41;;;;;;;;;;;4.20;99.90;;;;;;5071570;28;19916;-56
2022/01/27 06:46:07;;;;;;;;;;;4.20;99.90;;;;;;5069834;28;19912;-57
2022/01/27 06:48:32;;;;;;;;;;;4.20;99.90;;;;;;5069600;28;19919;-53
2022/01/27 06:51:00;;;;;;;;;;;4.20;99.90;;;;;;5070208;28;20381;-55
2022/01/27 06:53:26;;;;;;;;;;;4.20;99.90;;;;;;5072394;28;19908;-55
2022/01/27 06:55:52;;;;;;;;;;;4.20;99.90;;;;;;5070758;28;19920;-56
2022/01/27 06:58:18;;;;;;;;;;;4.20;99.90;;;;;;5069712;28;19913;-56
2022/01/27 07:00:43;;;;;;;;;;;4.20;99.90;;;;;;5069489;28;19941;-56
2022/01/27 07:03:09;;;;;;;;;;;4.20;99.90;;;;;;5070859;28;19970;-52
2022/01/27 07:05:35;;;;;;;;;;;4.20;99.90;;;;;;5067093;28;19917;-57
2022/01/27 07:08:00;;;;;;;;;;;4.20;99.90;;;;;;5052955;28;20268;-53
2022/01/27 07:10:26;;;;;;;;;;;4.30;99.90;;;;;;5061581;28;20453;-55
2022/01/27 07:12:52;;;;;;;;;;;4.20;99.90;;;;;;5066584;28;19999;-54
2022/01/27 07:15:18;;;;;;;;;;;4.20;99.90;;;;;;5069486;28;19959;-70
2022/01/27 07:17:44;;;;;;;;;;;4.30;99.90;;;;;;5058629;28;19975;-69
2022/01/27 07:20:10;;;;;;;;;;;4.30;99.90;;;;;;5071432;28;20628;-69
2022/01/27 07:22:36;;;;;;;;;;;4.30;99.90;;;;;;5066315;28;20300;-70
2022/01/27 07:25:02;;;;;;;;;;;4.30;99.90;;;;;;5071226;28;19917;-69
2022/01/27 07:27:28;;;;;;;;;;;4.30;99.90;;;;;;5068139;28;20011;-70
2022/01/27 07:29:53;;;;;;;;;;;4.30;99.90;;;;;;5070182;28;19955;-67
2022/01/27 07:32:19;;;;;;;;;;;4.30;99.90;;;;;;5071779;28;20365;-68
2022/01/27 07:34:44;;;;;;;;;;;4.30;99.90;;;;;;5070592;28;19908;-69
2022/01/27 07:37:10;;;;;;;;;;;4.40;99.90;;;;;;5058800;28;19928;-68
2022/01/27 07:39:35;;;;;;;;;;;4.40;99.90;;;;;;5061996;28;19913;-69
2022/01/27 07:42:01;;;;;;;;;;;4.40;99.90;;;;;;5059169;28;19912;-68
2022/01/27 07:44:27;;;;;;;;;;;4.40;99.90;;;;;;5060045;28;19913;-68
2022/01/27 07:46:53;;;;;;;;;;;4.30;99.90;;;;;;5059902;28;19948;-69
2022/01/27 07:49:19;;;;;;;;;;;4.30;99.90;;;;;;5063971;28;19913;-68
2022/01/27 07:51:45;;;;;;;;;;;4.40;99.90;;;;;;5061298;28;20366;-68
2022/01/27 07:54:10;;;;;;;;;;;4.30;99.90;;;;;;5058948;28;19916;-68
2022/01/27 07:56:36;;;;;;;;;;;4.30;99.90;;;;;;5062202;28;19921;-68
2022/01/27 07:59:01;;;;;;;;;;;4.30;99.90;;;;;;5063040;28;20623;-68
2022/01/27 08:01:27;;;;;;;;;;;4.30;99.90;;;;;;5043215;28;20053;-68
2022/01/27 08:03:52;;;;;;;;;;;4.30;99.90;;;;;;5059781;28;19995;-67
2022/01/27 08:06:18;;;;;;;;;;;4.30;99.90;;;;;;5059117;28;19916;-69
2022/01/27 08:08:43;;;;;;;;;;;4.30;99.90;;;;;;5058893;28;20274;-68
2022/01/27 08:11:09;;;;;;;;;;;4.30;99.90;;;;;;5061034;28;19912;-68
2022/01/27 08:13:34;;;;;;;;;;;4.40;99.90;;;;;;5059043;28;20377;-69
2022/01/27 08:16:00;;;;;;;;;;;4.40;99.90;;;;;;5059901;28;20356;-66
2022/01/27 08:18:25;;;;;;;;;;;4.40;99.90;;;;;;5058304;28;19913;-68
2022/01/27 08:20:51;;;;;;;;;;;4.40;99.90;;;;;;5057789;28;20423;-69
2022/01/27 08:23:16;;;;;;;;;;;4.40;99.90;;;;;;5059922;28;20007;-69
2022/01/27 08:25:48;;;;;;;;;;;4.40;99.90;;;;;;5057719;28;19919;-66
2022/01/27 08:28:30;;;;;;;;;;;4.50;99.90;;;;;;5060705;28;19917;-68
2022/01/27 08:30:57;;;;;;;;;;;4.50;99.90;;;;;;5059488;28;20561;-67
2022/01/27 08:33:23;;;;;;;;;;;4.50;99.90;;;;;;5041632;28;19916;-67
2022/01/27 08:35:49;;;;;;;;;;;4.50;99.90;;;;;;5058289;28;19920;-67
2022/01/27 08:38:15;;;;;;;;;;;4.50;99.90;;;;;;5043586;28;19917;-68
2022/01/27 08:40:40;;;;;;;;;;;4.50;99.90;;;;;;5058776;28;19963;-66
2022/01/27 08:43:07;;;;;;;;;;;4.50;99.90;;;;;;5061165;28;19912;-69
2022/01/27 08:45:33;;;;;;;;;;;4.50;99.90;;;;;;5040470;28;19980;-68
2022/01/27 08:47:59;;;;;;;;;;;4.50;99.90;;;;;;5058139;28;19963;-69
2022/01/27 08:50:25;;;;;;;;;;;4.50;99.90;;;;;;5057739;28;20011;-67
2022/01/27 08:52:51;;;;;;;;;;;4.50;99.90;;;;;;5059828;28;20297;-67
2022/01/27 08:55:17;;;;;;;;;;;4.60;99.90;;;;;;5064810;28;19927;-67
2022/01/27 08:57:43;;;;;;;;;;;4.70;99.90;;;;;;5059628;28;19998;-68
2022/01/27 09:00:09;;;;;;;;;;;4.70;99.90;;;;;;5062628;28;19920;-67
2022/01/27 09:02:35;;;;;;;;;;;4.70;99.90;;;;;;5057716;28;19917;-67
2022/01/27 09:05:00;;;;;;;;;;;4.70;99.90;;;;;;5058939;28;19919;-66
2022/01/27 09:07:26;;;;;;;;;;;4.70;99.90;;;;;;5062943;28;20412;-66
2022/01/27 09:09:52;;;;;;;;;;;4.80;99.90;;;;;;5064290;28;20018;-68
2022/01/27 09:12:17;;;;;;;;;;;4.70;99.90;;;;;;5063061;28;19917;-66
2022/01/27 09:14:43;;;;;;;;;;;4.70;99.90;;;;;;5048468;28;19917;-68
2022/01/27 09:17:10;;;;;;;;;;;4.80;99.90;;;;;;5065327;28;20018;-66
2022/01/27 09:19:38;;;;;;;;;;;4.80;99.90;;;;;;5059570;28;20464;-68
2022/01/27 09:22:11;;;;;;;;;;;4.80;99.90;;;;;;5061276;28;19936;-67
2022/01/27 09:24:41;;;;;;;;;;;4.90;99.90;;;;;;5063868;28;19919;-67
2022/01/27 09:27:07;;;;;;;;;;;4.90;99.90;;;;;;5060851;28;20369;-67
2022/01/27 09:29:32;;;;;;;;;;;4.90;99.90;;;;;;5070388;28;19919;-68
2022/01/27 09:31:59;;;;;;;;;;;5.00;99.90;;;;;;5065438;28;19913;-67
2022/01/27 09:34:25;;;;;;;;;;;5.10;99.90;;;;;;5067572;28;19966;-68
2022/01/27 09:36:51;;;;;;;;;;;5.10;99.90;;;;;;5045197;28;19920;-67
2022/01/27 09:39:18;;;;;;;;;;;5.10;99.90;;;;;;5074486;28;19965;-68
2022/01/27 09:41:43;;;;;;;;;;;5.20;99.90;;;;;;5071848;28;19917;-68
2022/01/27 09:44:12;;;;;;;;;;;5.20;99.90;;;;;;5073886;28;20010;-67
2022/01/27 09:46:40;;;;;;;;;;;5.30;99.90;;;;;;5072999;28;19924;-68
2022/01/27 09:49:12;;;;;;;;;;;5.40;99.90;;;;;;5072577;28;20309;-67
2022/01/27 09:51:40;;;;;;;;;;;5.40;99.90;;;;;;5072642;28;19999;-67
2022/01/27 09:54:07;;;;;;;;;;;5.50;99.90;;;;;;5071113;28;19913;-69
2022/01/27 09:56:34;;;;;;;;;;;5.60;99.90;;;;;;5072556;28;20355;-67
2022/01/27 09:58:59;;;;;;;;;;;5.60;99.90;;;;;;5072084;28;19944;-68
2022/01/27 10:01:25;;;;;;;;;;;5.70;99.90;;;;;;5070957;28;20419;-68
2022/01/27 10:03:52;;;;;;;;;;;5.80;99.90;;;;;;5072568;28;19916;-69
2022/01/27 10:06:18;;;;;;;;;;;5.80;99.90;;;;;;5072761;28;19987;-67
2022/01/27 10:08:44;;;;;;;;;;;5.90;99.90;;;;;;5071616;28;19920;-68
2022/01/27 10:11:16;;;;;;;;;;;5.90;99.90;;;;;;5072800;28;19912;-67
2022/01/27 10:13:44;;;;;;;;;;;6.00;99.90;;;;;;5069976;28;19908;-69
2022/01/27 10:16:29;;;;;;;;;;;6.00;99.90;;;;;;5072118;28;19925;-68
2022/01/27 10:19:07;;;;;;;;;;;6.00;99.90;;;;;;5069526;28;19915;-69
2022/01/27 10:21:33;;;;;;;;;;;6.10;99.90;;;;;;5072033;28;19995;-69
2022/01/27 10:24:20;;;;;;;;;;;6.10;99.90;;;;;;5070055;28;19909;-69
2022/01/27 10:26:53;;;;;;;;;;;6.10;99.90;;;;;;5070942;28;20019;-68
2022/01/27 10:29:32;;;;;;;;;;;6.30;99.90;;;;;;5065075;28;19940;-67
2022/01/27 10:32:03;;;;;;;;;;;6.40;99.90;;;;;;5073853;28;19920;-69
2022/01/27 10:34:28;;;;;;;;;;;6.40;99.90;;;;;;5071003;28;19915;-69
2022/01/27 10:36:55;;;;;;;;;;;6.40;99.90;;;;;;5071549;28;20296;-69
2022/01/27 10:39:20;;;;;;;;;;;6.50;99.90;;;;;;5070326;28;20377;-69
2022/01/27 10:42:07;;;;;;;;;;;6.50;99.90;;;;;;5071597;28;19920;-69
2022/01/27 10:44:48;;;;;;;;;;;6.50;99.90;;;;;;5069792;28;20353;-68
2022/01/27 10:47:20;;;;;;;;;;;6.50;99.90;;;;;;5073645;28;19920;-68
2022/01/27 10:49:51;;;;;;;;;;;6.50;99.90;;;;;;5071186;28;20066;-70
2022/01/27 10:52:30;;;;;;;;;;;6.50;99.90;;;;;;5069219;28;19908;-67
2022/01/27 10:54:56;;;;;;;;;;;6.50;99.90;;;;;;5069220;28;20377;-67
2022/01/27 10:57:24;;;;;;;;;;;6.50;99.90;;;;;;5069645;28;19999;-70
2022/01/27 11:00:03;;;;;;;;;;;6.50;99.90;;;;;;5054048;28;19938;-67
2022/01/27 11:02:28;;;;;;;;;;;6.50;99.90;;;;;;5069000;28;19931;-68
2022/01/27 11:04:54;;;;;;;;;;;6.60;99.90;;;;;;5070956;28;20369;-68
2022/01/27 11:07:24;;;;;;;;;;;6.60;99.90;;;;;;5069732;28;19966;-68
2022/01/27 11:09:49;;;;;;;;;;;6.60;99.90;;;;;;5070842;28;19917;-69
2022/01/27 11:12:18;;;;;;;;;;;6.70;99.90;;;;;;5069876;28;19913;-69
2022/01/27 11:14:45;;;;;;;;;;;6.70;99.90;;;;;;5072207;28;19921;-69
2022/01/27 11:17:17;;;;;;;;;;;6.70;99.90;;;;;;5071751;28;20092;-69
2022/01/27 11:25:49;;;;;;;;;;;6.70;99.90;;;;;;5061315;28;19939;-68
2022/01/27 11:27:55;;;;;;;;;;;6.70;99.90;;;;;;5063336;28;20491;-68
2022/01/27 11:30:39;;;;;;;;;;;6.80;99.90;;;;;;5060605;28;20002;-69
2022/01/27 11:33:13;;;;;;;;;;;6.70;99.90;;;;;;5066314;28;20030;-70
2022/01/27 11:35:39;;;;;;;;;;;6.70;99.90;;;;;;5057393;28;20274;-69
2022/01/27 11:38:06;;;;;;;;;;;6.80;99.90;;;;;;5061757;28;19913;-69
2022/01/27 11:40:36;;;;;;;;;;;6.80;99.90;;;;;;5061141;28;19928;-70
2022/01/27 11:43:03;;;;;;;;;;;6.80;99.90;;;;;;5064292;28;19917;-69
2022/01/27 11:45:31;;;;;;;;;;;6.80;99.90;;;;;;5060340;28;20365;-70
2022/01/27 11:48:06;;;;;;;;;;;6.80;99.90;;;;;;5041450;28;19916;-70
2022/01/27 11:50:36;;;;;;;;;;;6.70;99.90;;;;;;5058255;28;19913;-68
2022/01/27 11:53:03;;;;;;;;;;;6.80;99.90;;;;;;5057771;28;20289;-68
2022/01/27 11:55:29;;;;;;;;;;;6.90;99.90;;;;;;5057134;28;20074;-68
2022/01/27 11:57:55;;;;;;;;;;;6.90;99.90;;;;;;5062473;28;19923;-66
2022/01/27 12:00:22;;;;;;;;;;;6.90;99.90;;;;;;5063491;28;19922;-70
2022/01/27 12:03:04;;;;;;;;;;;7.00;99.90;;;;;;5061619;28;20376;-69
2022/01/27 12:05:31;;;;;;;;;;;7.10;99.90;;;;;;5058582;28;19935;-70
2022/01/27 12:08:09;;;;;;;;;;;7.10;99.90;;;;;;5063064;28;19916;-68
2022/01/27 12:10:37;;;;;;;;;;;7.20;99.90;;;;;;5060160;28;19917;-67
2022/01/27 12:13:23;;;;;;;;;;;7.30;99.90;;;;;;5063493;28;20303;-68
2022/01/27 12:16:07;;;;;;;;;;;7.30;99.90;;;;;;5063820;28;19943;-68
2022/01/27 12:18:34;;;;;;;;;;;7.30;99.90;;;;;;5059845;28;19920;-67
2022/01/27 12:21:20;;;;;;;;;;;7.30;99.90;;;;;;5043642;28;19912;-68
2022/01/27 12:24:04;;;;;;;;;;;7.30;99.90;;;;;;5057543;28;19923;-68
2022/01/27 12:27:05;;;;;;;;;;;7.30;99.90;;;;;;5058208;28;19913;-69
2022/01/27 12:29:36;;;;;;;;;;;7.40;99.90;;;;;;4967188;28;20281;-67
2022/01/27 12:32:02;;;;;;;;;;;7.40;99.90;;;;;;4967761;28;19914;-68
2022/01/27 12:34:27;;;;;;;;;;;7.40;99.90;;;;;;4967433;28;19918;-69
2022/01/27 12:36:54;;;;;;;;;;;7.50;99.90;;;;;;4966389;28;20033;-68
2022/01/27 12:39:23;;;;;;;;;;;7.50;99.90;;;;;;4955104;28;20005;-70
2022/01/27 12:41:53;;;;;;;;;;;7.50;99.90;;;;;;4950209;28;19922;-68
2022/01/27 12:44:19;;;;;;;;;;;7.50;99.90;;;;;;4966728;28;19925;-70
2022/01/27 12:47:04;;;;;;;;;;;7.50;99.90;;;;;;4981409;28;19914;-67
2022/01/27 12:49:37;;;;;;;;;;;7.40;99.90;;;;;;4972111;28;19914;-69
2022/01/27 12:52:06;;;;;;;;;;;7.40;99.90;;;;;;4989245;28;19914;-68
2022/01/27 12:54:33;;;;;;;;;;;7.50;99.90;;;;;;4991879;28;19913;-68
2022/01/27 12:56:58;;;;;;;;;;;7.50;99.90;;;;;;4982475;28;19933;-68
2022/01/27 12:59:24;;;;;;;;;;;7.50;99.90;;;;;;4984443;28;19914;-68
2022/01/27 13:01:59;;;;;;;;;;;7.60;99.90;;;;;;4985485;28;19918;-67
2022/01/27 13:04:26;;;;;;;;;;;7.60;99.90;;;;;;5053780;28;19920;-68
2022/01/27 13:06:53;;;;;;;;;;;7.60;99.90;;;;;;5060462;28;19939;-69
2022/01/27 13:09:18;;;;;;;;;;;7.70;99.90;;;;;;5064055;28;19944;-70
2022/01/27 13:11:46;;;;;;;;;;;7.70;99.90;;;;;;5058849;28;19972;-69
2022/01/27 13:14:11;;;;;;;;;;;7.80;99.90;;;;;;5065851;28;19917;-69
2022/01/27 13:16:41;;;;;;;;;;;7.80;99.90;;;;;;5048422;28;20309;-68
2022/01/27 13:19:19;;;;;;;;;;;7.90;99.90;;;;;;5067608;28;20340;-68
2022/01/27 13:21:49;;;;;;;;;;;8.00;99.90;;;;;;5067688;28;19916;-69
2022/01/27 13:24:18;;;;;;;;;;;8.00;99.90;;;;;;5063017;28;19916;-69
2022/01/27 13:26:45;;;;;;;;;;;8.00;99.90;;;;;;5069284;28;19919;-67
2022/01/27 13:29:14;;;;;;;;;;;8.00;99.90;;;;;;5066377;28;19913;-69
2022/01/27 13:31:42;;;;;;;;;;;8.00;99.90;;;;;;5066509;28;20470;-67
2022/01/27 13:34:07;;;;;;;;;;;8.00;99.90;;;;;;5067616;28;19919;-70
2022/01/27 13:36:35;;;;;;;;;;;8.00;99.90;;;;;;5065595;28;20015;-68
2022/01/27 13:41:38;;;;;;;;;;;8.10;99.90;;;;;;5065651;28;20649;-69
2022/01/27 13:44:04;;;;;;;;;;;8.00;99.90;;;;;;5048797;28;19912;-69
2022/01/27 13:46:46;;;;;;;;;;;8.00;99.90;;;;;;5068167;28;19958;-66
2022/01/27 13:49:13;;;;;;;;;;;8.00;99.90;;;;;;5063655;28;19924;-67
2022/01/27 13:51:46;;;;;;;;;;;8.10;99.90;;;;;;5068098;28;19913;-69
2022/01/27 13:54:12;;;;;;;;;;;8.10;99.90;;;;;;5066155;28;19917;-69
2022/01/27 13:56:45;;;;;;;;;;;8.10;99.90;;;;;;5065895;28;19931;-68
2022/01/27 13:59:15;;;;;;;;;;;8.10;99.90;;;;;;5066239;28;20385;-68
2022/01/27 14:01:41;;;;;;;;;;;8.20;99.90;;;;;;5069455;28;19919;-66
2022/01/27 14:04:06;;;;;;;;;;;8.20;99.90;;;;;;5045214;28;19917;-68
2022/01/27 14:06:45;;;;;;;;;;;8.20;99.90;;;;;;5064705;28;19960;-69
2022/01/27 14:09:18;;;;;;;;;;;8.20;99.90;;;;;;5066984;28;19916;-68
2022/01/27 14:11:43;;;;;;;;;;;8.10;99.90;;;;;;5065129;28;19916;-66
2022/01/27 14:14:09;;;;;;;;;;;8.10;99.90;;;;;;5067747;28;19920;-68
2022/01/27 14:16:34;;;;;;;;;;;8.10;99.90;;;;;;5068681;28;19921;-68
2022/01/27 14:19:13;;;;;;;;;;;8.10;99.90;;;;;;5065982;28;19912;-67
2022/01/27 14:21:42;;;;;;;;;;;8.10;99.90;;;;;;5069261;28;19912;-69
2022/01/27 14:24:10;;;;;;;;;;;8.10;99.90;;;;;;5061409;28;19927;-66
2022/01/27 14:26:42;;;;;;;;;;;8.20;99.90;;;;;;5062536;28;19916;-68
2022/01/27 14:29:14;;;;;;;;;;;8.20;99.90;;;;;;5061978;28;19913;-69
2022/01/27 14:31:44;;;;;;;;;;;8.20;99.90;;;;;;5065421;28;19912;-67
2022/01/27 14:34:10;;;;;;;;;;;8.20;99.90;;;;;;5063827;28;19916;-67
2022/01/27 14:36:40;;;;;;;;;;;8.10;99.90;;;;;;5061812;28;19931;-68
2022/01/27 14:39:06;;;;;;;;;;;8.20;99.90;;;;;;5062452;28;20353;-69
2022/01/27 14:41:31;;;;;;;;;;;8.20;99.90;;;;;;5062331;28;19923;-68
2022/01/27 14:43:58;;;;;;;;;;;8.20;99.90;;;;;;5066915;28;20277;-69
2022/01/27 14:46:31;;;;;;;;;;;8.20;99.90;;;;;;5066092;28;19959;-70
2022/01/27 14:49:00;;;;;;;;;;;8.20;99.90;;;;;;5063065;28;19912;-68
2022/01/27 14:51:28;;;;;;;;;;;8.30;99.90;;;;;;5065922;28;19912;-71
2022/01/27 14:53:54;;;;;;;;;;;8.30;99.90;;;;;;5063087;28;19920;-69
2022/01/27 14:56:21;;;;;;;;;;;8.30;99.90;;;;;;5062846;28;19924;-70
2022/01/27 14:58:47;;;;;;;;;;;8.30;99.90;;;;;;5065998;28;19917;-67
2022/01/27 15:01:12;;;;;;;;;;;8.30;99.90;;;;;;5066780;28;19974;-69
2022/01/27 15:03:38;;;;;;;;;;;8.20;99.90;;;;;;5064839;28;19916;-69
2022/01/27 15:06:03;;;;;;;;;;;8.20;99.90;;;;;;5065623;28;20253;-69
2022/01/27 15:08:29;;;;;;;;;;;8.10;99.90;;;;;;5064879;28;19923;-69
2022/01/27 15:10:54;;;;;;;;;;;8.10;99.90;;;;;;5067519;28;20265;-68
2022/01/27 15:13:21;;;;;;;;;;;8.10;99.90;;;;;;5066034;28;19999;-68